Time;durP1;ratioP1;P1;durP2;ratioP2;P2;SDS_P1;SDS_P2;PMS_P1;PMS_P2;Temp;Humidity;BMP_temperature;BMP_pressure;BME280_temperature;BME280_humidity;BME280_pressure;Samples;Min_cycle;Max_cycle;Signal;HPM_P1;HPM_P2
2023/08/07 00:00:12;;;;;;;9.90;6.97;;;;;;;;;;5067739;28;20022;-75
2023/08/07 00:02:37;;;;;;;7.78;7.07;;;;;;;;;;5082191;28;20028;-81
2023/08/07 00:05:03;;;;;;;8.00;7.22;;;;;;;;;;5069264;28;20036;-78
2023/08/07 00:07:28;;;;;;;7.47;6.88;;;;;;;;;;5076940;28;20024;-78
2023/08/07 00:09:54;;;;;;;9.05;7.57;;;;;;;;;;5082421;28;20024;-75
2023/08/07 00:12:19;;;;;;;7.78;7.03;;;;;;;;;;5082190;28;20432;-77
2023/08/07 00:14:46;;;;;;;8.45;6.78;;;;;;;;;;5074371;28;20107;-81
2023/08/07 00:17:12;;;;;;;7.13;6.57;;;;;;;;;;5072644;28;20117;-80
2023/08/07 00:19:37;;;;;;;8.93;6.82;;;;;;;;;;5075717;28;20102;-80
2023/08/07 00:22:03;;;;;;;7.07;6.38;;;;;;;;;;5072533;28;20035;-78
2023/08/07 00:24:28;;;;;;;6.07;5.47;;;;;;;;;;5075634;28;20056;-80
2023/08/07 00:26:53;;;;;;;8.32;5.85;;;;;;;;;;5076500;28;20050;-84
2023/08/07 00:29:19;;;;;;;6.65;6.03;;;;;;;;;;5074704;28;20034;-80
2023/08/07 00:31:44;;;;;;;6.78;6.22;;;;;;;;;;5070720;28;20025;-79
2023/08/07 00:34:09;;;;;;;10.52;6.90;;;;;;;;;;5074955;28;20044;-82
2023/08/07 00:36:35;;;;;;;8.55;6.50;;;;;;;;;;5073653;28;20062;-78
2023/08/07 00:39:02;;;;;;;8.20;7.32;;;;;;;;;;5068322;28;20443;-79
2023/08/07 00:41:28;;;;;;;6.90;6.30;;;;;;;;;;5076359;28;20028;-79
2023/08/07 00:43:54;;;;;;;6.53;5.93;;;;;;;;;;5069450;28;20047;-81
2023/08/07 00:46:19;;;;;;;8.05;6.65;;;;;;;;;;5072857;28;20032;-81
2023/08/07 00:48:45;;;;;;;7.35;5.53;;;;;;;;;;5077134;28;20032;-80
2023/08/07 00:51:11;;;;;;;6.35;5.10;;;;;;;;;;5074191;28;20119;-78
2023/08/07 00:53:38;;;;;;;5.40;4.90;;;;;;;;;;5073167;28;20043;-78
2023/08/07 00:56:03;;;;;;;9.63;4.97;;;;;;;;;;5072516;28;20045;-81
2023/08/07 00:58:29;;;;;;;7.65;5.38;;;;;;;;;;5071910;28;20028;-82
2023/08/07 01:00:55;;;;;;;6.00;5.50;;;;;;;;;;5072522;28;20030;-80
2023/08/07 01:03:20;;;;;;;6.88;5.53;;;;;;;;;;5074236;28;20119;-81
2023/08/07 01:05:45;;;;;;;8.63;6.10;;;;;;;;;;5071010;28;20024;-80
2023/08/07 01:08:11;;;;;;;7.07;6.43;;;;;;;;;;5073522;28;20032;-79
2023/08/07 01:10:39;;;;;;;7.00;5.60;;;;;;;;;;5073657;28;20017;-79
2023/08/07 01:13:08;;;;;;;6.65;5.85;;;;;;;;;;5071326;28;20361;-82
2023/08/07 01:15:35;;;;;;;6.70;6.07;;;;;;;;;;5072402;28;20032;-81
2023/08/07 01:18:00;;;;;;;11.48;6.85;;;;;;;;;;5072756;28;20177;-78
2023/08/07 01:20:26;;;;;;;8.45;6.60;;;;;;;;;;5071945;28;20481;-78
2023/08/07 01:22:51;;;;;;;11.13;6.47;;;;;;;;;;5077174;28;20028;-80
2023/08/07 01:25:16;;;;;;;10.38;6.38;;;;;;;;;;5072595;28;20025;-78
2023/08/07 01:27:46;;;;;;;6.05;5.20;;;;;;;;;;5070546;28;20024;-78
2023/08/07 01:30:11;;;;;;;;;;;;;;;;;;5076788;28;20368;-82
2023/08/07 01:32:43;;;;;;;5.53;5.10;;;;;;;;;;5073616;28;20363;-78
2023/08/07 01:35:11;;;;;;;7.90;4.78;;;;;;;;;;5069651;28;20296;-78
2023/08/07 01:37:38;;;;;;;7.13;4.28;;;;;;;;;;5073948;28;20578;-80
2023/08/07 01:40:05;;;;;;;7.20;5.10;;;;;;;;;;5069200;28;20379;-78
2023/08/07 01:42:32;;;;;;;5.28;4.65;;;;;;;;;;5071616;28;20044;-80
2023/08/07 01:44:57;;;;;;;7.20;5.50;;;;;;;;;;5069996;28;20020;-80
2023/08/07 01:47:22;;;;;;;4.63;4.25;;;;;;;;;;5067809;28;20069;-79
2023/08/07 01:49:48;;;;;;;6.07;4.43;;;;;;;;;;5070911;28;20103;-78
2023/08/07 01:52:13;;;;;;;4.88;4.40;;;;;;;;;;5071614;28;20040;-77
2023/08/07 01:54:38;;;;;;;4.85;4.25;;;;;;;;;;5076128;28;20039;-81
2023/08/07 01:57:04;;;;;;;5.47;4.97;;;;;;;;;;5074844;28;20053;-76
2023/08/07 01:59:29;;;;;;;7.97;4.40;;;;;;;;;;5070633;28;20131;-82
2023/08/07 02:01:55;;;;;;;7.70;5.00;;;;;;;;;;5071562;28;20020;-79
2023/08/07 02:04:20;;;;;;;6.90;5.55;;;;;;;;;;5069696;28;20127;-79
2023/08/07 02:06:45;;;;;;;8.40;5.38;;;;;;;;;;5072021;28;20016;-83
2023/08/07 02:09:11;;;;;;;7.55;4.75;;;;;;;;;;5071133;28;20103;-81
2023/08/07 02:11:36;;;;;;;5.93;5.32;;;;;;;;;;5070320;28;20052;-78
2023/08/07 02:14:01;;;;;;;8.45;6.25;;;;;;;;;;5070124;28;20039;-79
2023/08/07 02:16:27;;;;;;;7.50;5.85;;;;;;;;;;5074991;28;20085;-79
2023/08/07 02:18:52;;;;;;;6.57;5.65;;;;;;;;;;5073315;28;20024;-78
2023/08/07 02:21:17;;;;;;;10.07;5.82;;;;;;;;;;5073456;28;20382;-80
2023/08/07 02:23:42;;;;;;;5.90;5.35;;;;;;;;;;5072956;28;20027;-78
2023/08/07 02:26:08;;;;;;;9.65;6.22;;;;;;;;;;5073352;28;20027;-78
2023/08/07 02:28:34;;;;;;;7.68;5.22;;;;;;;;;;5076210;28;20032;-82
2023/08/07 02:30:59;;;;;;;6.20;5.15;;;;;;;;;;5074365;28;20051;-80
2023/08/07 02:33:24;;;;;;;6.78;4.00;;;;;;;;;;5071033;28;20574;-80
2023/08/07 02:35:51;;;;;;;4.15;3.72;;;;;;;;;;5070169;28;20024;-79
2023/08/07 02:38:16;;;;;;;5.55;3.80;;;;;;;;;;5073763;28;20131;-77
2023/08/07 02:40:41;;;;;;;6.28;4.53;;;;;;;;;;5070826;28;20418;-77
2023/08/07 02:43:07;;;;;;;6.85;4.45;;;;;;;;;;5071743;28;20102;-77
2023/08/07 02:45:34;;;;;;;4.70;4.30;;;;;;;;;;5071048;28;20028;-76
2023/08/07 02:47:59;;;;;;;6.50;3.85;;;;;;;;;;5074238;28;20335;-79
2023/08/07 02:50:26;;;;;;;4.65;4.25;;;;;;;;;;5074046;28;20093;-81
2023/08/07 02:52:51;;;;;;;9.05;4.95;;;;;;;;;;5072951;28;20032;-77
2023/08/07 02:55:16;;;;;;;4.57;4.18;;;;;;;;;;5065853;28;20058;-77
2023/08/07 02:57:42;;;;;;;5.10;4.63;;;;;;;;;;5073204;28;20036;-79
2023/08/07 03:00:07;;;;;;;6.38;4.90;;;;;;;;;;5071351;28;20020;-77
2023/08/07 03:02:33;;;;;;;4.18;3.83;;;;;;;;;;5073982;28;20034;-79
2023/08/07 03:04:58;;;;;;;6.22;4.63;;;;;;;;;;5070912;28;20020;-83
2023/08/07 03:07:23;;;;;;;7.63;4.20;;;;;;;;;;5067660;28;20086;-80
2023/08/07 03:09:49;;;;;;;4.95;4.05;;;;;;;;;;5073822;28;20020;-77
2023/08/07 03:12:14;;;;;;;4.80;4.32;;;;;;;;;;5071276;28;20440;-76
2023/08/07 03:14:39;;;;;;;8.27;4.25;;;;;;;;;;5072951;28;20537;-75
2023/08/07 03:17:05;;;;;;;5.30;4.00;;;;;;;;;;5071349;28;20107;-80
2023/08/07 03:19:30;;;;;;;6.57;3.63;;;;;;;;;;5070678;28;20020;-77
2023/08/07 03:21:56;;;;;;;3.83;3.53;;;;;;;;;;5071885;28;20496;-78
2023/08/07 03:24:21;;;;;;;5.00;3.53;;;;;;;;;;5071094;28;20364;-78
2023/08/07 03:26:47;;;;;;;8.57;3.38;;;;;;;;;;5069969;28;20078;-77
2023/08/07 03:29:12;;;;;;;7.75;3.92;;;;;;;;;;5068834;28;20050;-80
2023/08/07 03:31:38;;;;;;;5.82;3.83;;;;;;;;;;5068452;28;20123;-80
2023/08/07 03:34:03;;;;;;;8.30;3.60;;;;;;;;;;5072949;28;20047;-78
2023/08/07 03:36:28;;;;;;;8.40;3.97;;;;;;;;;;5078672;28;20020;-80
2023/08/07 03:38:54;;;;;;;3.75;3.42;;;;;;;;;;5074181;28;20489;-78
2023/08/07 03:41:19;;;;;;;4.38;3.58;;;;;;;;;;5089701;28;20382;-78
2023/08/07 03:43:45;;;;;;;4.60;4.18;;;;;;;;;;5078007;28;20119;-80
2023/08/07 03:46:11;;;;;;;5.05;3.67;;;;;;;;;;5074592;28;20024;-80
2023/08/07 03:48:36;;;;;;;7.05;3.78;;;;;;;;;;5074812;28;20431;-77
2023/08/07 03:51:05;;;;;;;3.92;3.63;;;;;;;;;;5072590;28;20606;-81
2023/08/07 03:53:30;;;;;;;4.87;4.13;;;;;;;;;;5068431;28;20102;-77
2023/08/07 03:55:55;;;;;;;5.50;4.00;;;;;;;;;;5070900;28;20324;-79
2023/08/07 03:58:21;;;;;;;4.32;3.92;;;;;;;;;;5070432;28;20498;-79
2023/08/07 04:00:46;;;;;;;4.97;3.92;;;;;;;;;;5071120;28;20420;-82
2023/08/07 04:03:12;;;;;;;5.32;4.28;;;;;;;;;;5072388;28;20038;-80
2023/08/07 04:05:37;;;;;;;6.43;4.00;;;;;;;;;;5073367;28;20365;-79
2023/08/07 04:08:02;;;;;;;5.38;4.05;;;;;;;;;;5077634;28;20028;-83
2023/08/07 04:10:28;;;;;;;4.20;3.85;;;;;;;;;;5077651;28;20031;-78
2023/08/07 04:12:53;;;;;;;6.55;4.32;;;;;;;;;;5072602;28;20051;-77
2023/08/07 04:15:18;;;;;;;8.63;4.20;;;;;;;;;;5065735;28;20024;-78
2023/08/07 04:17:43;;;;;;;5.15;4.57;;;;;;;;;;5082044;28;20059;-75
2023/08/07 04:20:10;;;;;;;4.90;4.32;;;;;;;;;;5080883;28;20034;-75
2023/08/07 04:22:35;;;;;;;5.97;4.65;;;;;;;;;;5082340;28;20032;-77
2023/08/07 04:25:02;;;;;;;6.57;4.43;;;;;;;;;;5077340;28;20016;-74
2023/08/07 04:27:27;;;;;;;7.40;4.32;;;;;;;;;;5071548;28;20072;-76
2023/08/07 04:29:53;;;;;;;4.97;4.05;;;;;;;;;;5065531;28;20024;-77
2023/08/07 04:32:18;;;;;;;4.38;3.88;;;;;;;;;;5063172;28;21082;-77
2023/08/07 04:34:43;;;;;;;6.50;4.65;;;;;;;;;;5063560;28;20062;-77
2023/08/07 04:37:09;;;;;;;5.13;4.53;;;;;;;;;;5067142;28;20099;-76
2023/08/07 04:39:35;;;;;;;4.68;4.38;;;;;;;;;;5077520;28;20375;-79
2023/08/07 04:42:01;;;;;;;4.95;4.55;;;;;;;;;;5079193;28;20035;-77
2023/08/07 04:44:26;;;;;;;5.82;4.13;;;;;;;;;;5069319;28;20028;-79
2023/08/07 04:46:52;;;;;;;8.63;4.80;;;;;;;;;;5070084;28;20085;-79
2023/08/07 04:49:17;;;;;;;5.38;4.15;;;;;;;;;;5079211;28;20431;-78
2023/08/07 04:51:43;;;;;;;5.53;4.32;;;;;;;;;;5061572;28;20032;-76
2023/08/07 04:54:09;;;;;;;5.30;4.88;;;;;;;;;;5061224;28;20038;-75
2023/08/07 04:56:34;;;;;;;4.63;4.22;;;;;;;;;;5061832;28;20084;-77
2023/08/07 04:59:01;;;;;;;5.50;4.32;;;;;;;;;;5065000;28;20335;-78
2023/08/07 05:01:26;;;;;;;6.43;4.53;;;;;;;;;;5059595;28;20039;-75
2023/08/07 05:03:52;;;;;;;5.50;4.40;;;;;;;;;;5071518;28;20043;-77
2023/08/07 05:06:18;;;;;;;4.60;4.03;;;;;;;;;;5080099;28;20020;-78
2023/08/07 05:08:44;;;;;;;4.95;4.30;;;;;;;;;;5080577;28;20103;-76
2023/08/07 05:11:09;;;;;;;4.47;4.07;;;;;;;;;;5072149;28;20111;-75
2023/08/07 05:13:35;;;;;;;7.63;4.15;;;;;;;;;;5066851;28;20458;-78
2023/08/07 05:16:00;;;;;;;5.18;4.10;;;;;;;;;;5079878;28;20022;-78
2023/08/07 05:18:25;;;;;;;5.45;3.95;;;;;;;;;;5079603;28;20040;-78
2023/08/07 05:20:50;;;;;;;5.22;4.10;;;;;;;;;;5081007;28;20056;-76
2023/08/07 05:23:16;;;;;;;5.55;4.00;;;;;;;;;;5079629;28;20459;-76
2023/08/07 05:25:41;;;;;;;8.05;3.83;;;;;;;;;;5078513;28;20454;-77
2023/08/07 05:28:07;;;;;;;4.57;3.70;;;;;;;;;;5078382;28;20471;-77
2023/08/07 05:30:32;;;;;;;5.93;3.92;;;;;;;;;;5075990;28;20020;-76
2023/08/07 05:32:58;;;;;;;3.75;3.53;;;;;;;;;;5077936;28;20028;-77
2023/08/07 05:35:23;;;;;;;3.67;3.47;;;;;;;;;;5078211;28;20073;-78
2023/08/07 05:37:48;;;;;;;5.65;4.18;;;;;;;;;;5077861;28;20174;-79
2023/08/07 05:40:14;;;;;;;5.38;3.85;;;;;;;;;;5076434;28;20359;-77
2023/08/07 05:42:40;;;;;;;5.43;3.67;;;;;;;;;;5080559;28;20032;-78
2023/08/07 05:45:06;;;;;;;5.50;3.78;;;;;;;;;;5079046;28;20024;-78
2023/08/07 05:47:32;;;;;;;3.83;3.53;;;;;;;;;;5069590;28;20073;-78
2023/08/07 05:49:57;;;;;;;4.15;3.85;;;;;;;;;;5063293;28;20423;-79
2023/08/07 05:52:22;;;;;;;3.95;3.60;;;;;;;;;;5078517;28;20037;-78
2023/08/07 05:54:48;;;;;;;3.72;3.28;;;;;;;;;;5080746;28;20042;-78
2023/08/07 05:57:13;;;;;;;4.57;3.53;;;;;;;;;;5078065;28;20032;-78
2023/08/07 05:59:40;;;;;;;3.58;3.28;;;;;;;;;;5081592;28;20020;-78
2023/08/07 06:02:06;;;;;;;4.88;3.42;;;;;;;;;;5077523;28;20602;-78
2023/08/07 06:04:31;;;;;;;5.72;4.00;;;;;;;;;;5062983;28;20024;-80
2023/08/07 06:06:56;;;;;;;3.63;3.33;;;;;;;;;;5077194;28;20020;-79
2023/08/07 06:09:22;;;;;;;3.70;3.22;;;;;;;;;;5078929;28;20028;-78
2023/08/07 06:11:47;;;;;;;5.32;3.53;;;;;;;;;;5077473;28;20039;-79
2023/08/07 06:14:13;;;;;;;3.55;3.10;;;;;;;;;;5079020;28;20029;-76
2023/08/07 06:16:38;;;;;;;2.90;2.70;;;;;;;;;;5079212;28;20031;-77
2023/08/07 06:19:03;;;;;;;3.28;2.67;;;;;;;;;;5078463;28;20035;-77
2023/08/07 06:21:29;;;;;;;3.50;2.50;;;;;;;;;;5077447;28;20332;-75
2023/08/07 06:23:55;;;;;;;2.95;2.67;;;;;;;;;;5075984;28;20028;-76
2023/08/07 06:26:20;;;;;;;2.55;2.35;;;;;;;;;;5074566;28;20066;-75
2023/08/07 06:28:45;;;;;;;3.78;2.60;;;;;;;;;;5077387;28;20111;-76
2023/08/07 06:31:11;;;;;;;2.60;2.47;;;;;;;;;;5076592;28;20032;-76
2023/08/07 06:33:37;;;;;;;4.93;2.55;;;;;;;;;;5062700;28;20119;-76
2023/08/07 06:36:03;;;;;;;2.78;2.58;;;;;;;;;;5061617;28;20032;-75
2023/08/07 06:38:28;;;;;;;3.70;2.22;;;;;;;;;;5065781;28;20468;-76
2023/08/07 06:40:53;;;;;;;5.63;2.30;;;;;;;;;;5072937;28;20104;-78
2023/08/07 06:43:19;;;;;;;2.15;1.83;;;;;;;;;;5064506;28;20035;-77
2023/08/07 06:45:50;;;;;;;1.83;1.73;;;;;;;;;;5057106;28;20032;-76
2023/08/07 06:48:15;;;;;;;2.20;2.10;;;;;;;;;;5059133;28;20094;-78
2023/08/07 06:50:41;;;;;;;3.55;2.30;;;;;;;;;;5070397;28;20040;-78
2023/08/07 06:53:06;;;;;;;2.78;2.17;;;;;;;;;;5076749;28;20100;-79
2023/08/07 06:55:33;;;;;;;2.22;1.90;;;;;;;;;;5074804;28;20110;-78
2023/08/07 06:57:58;;;;;;;2.80;2.15;;;;;;;;;;5073900;28;20027;-78
2023/08/07 07:00:23;;;;;;;1.90;1.80;;;;;;;;;;5076899;28;20409;-78
2023/08/07 07:02:49;;;;;;;2.00;1.90;;;;;;;;;;5075766;28;20024;-78
2023/08/07 07:05:14;;;;;;;4.43;2.15;;;;;;;;;;5074225;28;20024;-78
2023/08/07 07:07:39;;;;;;;1.58;1.50;;;;;;;;;;5074294;28;20096;-77
2023/08/07 07:10:05;;;;;;;2.08;1.88;;;;;;;;;;5065012;28;20028;-79
2023/08/07 07:12:30;;;;;;;2.22;2.03;;;;;;;;;;5069635;28;20036;-78
2023/08/07 07:14:56;;;;;;;2.80;1.83;;;;;;;;;;5072882;28;20066;-78
2023/08/07 07:17:21;;;;;;;2.00;1.90;;;;;;;;;;5062464;28;20345;-78
2023/08/07 07:19:46;;;;;;;2.47;2.28;;;;;;;;;;5063500;28;20051;-78
2023/08/07 07:22:12;;;;;;;3.47;2.28;;;;;;;;;;5065314;28;20127;-80
2023/08/07 07:24:38;;;;;;;4.45;1.80;;;;;;;;;;5064099;28;20020;-80
2023/08/07 07:27:03;;;;;;;1.70;1.60;;;;;;;;;;5066105;28;20017;-79
2023/08/07 07:29:29;;;;;;;2.42;2.22;;;;;;;;;;5071766;28;20074;-80
2023/08/07 07:31:55;;;;;;;3.55;2.05;;;;;;;;;;5062542;28;20467;-79
2023/08/07 07:34:20;;;;;;;2.33;1.80;;;;;;;;;;5072857;28;20028;-78
2023/08/07 07:36:46;;;;;;;2.45;2.00;;;;;;;;;;5074547;28;20328;-79
2023/08/07 07:39:11;;;;;;;2.05;1.95;;;;;;;;;;5058002;28;20062;-78
2023/08/07 07:41:36;;;;;;;2.40;2.20;;;;;;;;;;5058636;28;20063;-78
2023/08/07 07:44:02;;;;;;;2.08;1.98;;;;;;;;;;5058814;28;20075;-79
2023/08/07 07:46:27;;;;;;;3.17;1.77;;;;;;;;;;5056641;28;20030;-79
2023/08/07 07:48:52;;;;;;;2.20;1.90;;;;;;;;;;5056942;28;20028;-79
2023/08/07 07:51:18;;;;;;;2.55;1.63;;;;;;;;;;5058145;28;20079;-80
2023/08/07 07:53:43;;;;;;;2.05;1.95;;;;;;;;;;5060120;28;20039;-79
2023/08/07 07:56:08;;;;;;;2.85;1.88;;;;;;;;;;5060844;28;20082;-79
2023/08/07 07:58:34;;;;;;;1.80;1.70;;;;;;;;;;5061644;28;20025;-79
2023/08/07 08:00:59;;;;;;;2.20;2.00;;;;;;;;;;5071515;28;20067;-77
2023/08/07 08:03:24;;;;;;;2.05;1.95;;;;;;;;;;5062759;28;20064;-78
2023/08/07 08:05:51;;;;;;;2.05;1.92;;;;;;;;;;5058758;28;20025;-77
2023/08/07 08:08:16;;;;;;;1.58;1.48;;;;;;;;;;5061538;28;20028;-77
2023/08/07 08:10:42;;;;;;;1.35;1.30;;;;;;;;;;5061223;28;20026;-77
2023/08/07 08:13:11;;;;;;;1.52;1.42;;;;;;;;;;5060540;28;20044;-77
2023/08/07 08:15:36;;;;;;;1.80;1.70;;;;;;;;;;5061000;28;20854;-77
2023/08/07 08:18:01;;;;;;;1.60;1.50;;;;;;;;;;5056740;28;20071;-78
2023/08/07 08:20:27;;;;;;;1.70;1.60;;;;;;;;;;5062485;28;20107;-75
2023/08/07 08:22:52;;;;;;;1.73;1.63;;;;;;;;;;5075629;28;20493;-77
2023/08/07 08:25:17;;;;;;;1.00;1.00;;;;;;;;;;5079074;28;20031;-76
2023/08/07 08:27:43;;;;;;;6.43;1.30;;;;;;;;;;5081688;28;20095;-76
2023/08/07 08:30:09;;;;;;;2.97;1.27;;;;;;;;;;5066768;28;20024;-75
2023/08/07 08:32:34;;;;;;;1.58;0.88;;;;;;;;;;5063663;28;20031;-76
2023/08/07 08:34:59;;;;;;;0.98;0.98;;;;;;;;;;5063298;28;20115;-76
2023/08/07 08:37:25;;;;;;;0.68;0.68;;;;;;;;;;5080114;27;20033;-76
2023/08/07 08:39:50;;;;;;;0.80;0.80;;;;;;;;;;5062928;28;20044;-75
2023/08/07 08:42:17;;;;;;;1.95;0.77;;;;;;;;;;5065171;28;20081;-77
2023/08/07 08:44:48;;;;;;;0.68;0.68;;;;;;;;;;5061530;28;20024;-75
2023/08/07 08:47:14;;;;;;;1.40;0.90;;;;;;;;;;5075454;28;20035;-76
2023/08/07 08:49:46;;;;;;;1.75;0.90;;;;;;;;;;5080040;28;20105;-76
2023/08/07 08:52:12;;;;;;;1.38;0.90;;;;;;;;;;5067220;28;20086;-77
2023/08/07 08:54:38;;;;;;;1.48;0.93;;;;;;;;;;5074780;28;20034;-74
2023/08/07 08:57:03;;;;;;;0.70;0.70;;;;;;;;;;5079138;28;20071;-77
2023/08/07 08:59:29;;;;;;;0.70;0.70;;;;;;;;;;5077685;28;20401;-76
2023/08/07 09:01:54;;;;;;;1.08;1.08;;;;;;;;;;5078998;28;20016;-76
2023/08/07 09:04:20;;;;;;;0.90;0.90;;;;;;;;;;5079131;28;20024;-75
2023/08/07 09:06:46;;;;;;;0.80;0.80;;;;;;;;;;5063333;28;20092;-76
2023/08/07 09:09:13;;;;;;;1.35;1.02;;;;;;;;;;5060242;28;20039;-76
2023/08/07 09:11:39;;;;;;;1.17;0.90;;;;;;;;;;5079782;28;20056;-76
2023/08/07 09:14:05;;;;;;;1.00;0.88;;;;;;;;;;5075920;28;20033;-75
2023/08/07 09:16:30;;;;;;;1.30;0.95;;;;;;;;;;5061777;28;20094;-79
2023/08/07 09:18:56;;;;;;;1.42;0.90;;;;;;;;;;5061292;28;20154;-75
2023/08/07 09:21:21;;;;;;;1.10;0.90;;;;;;;;;;5061626;28;20032;-78
2023/08/07 09:23:46;;;;;;;1.60;1.10;;;;;;;;;;5061420;28;20522;-76
2023/08/07 09:26:12;;;;;;;1.33;1.13;;;;;;;;;;5062348;28;20389;-75
2023/08/07 09:28:38;;;;;;;6.07;1.27;;;;;;;;;;5078940;28;20745;-75
2023/08/07 09:31:06;;;;;;;0.88;0.88;;;;;;;;;;5066277;28;20355;-75
2023/08/07 09:33:31;;;;;;;0.63;0.63;;;;;;;;;;5064774;28;20117;-76
2023/08/07 09:36:00;;;;;;;2.72;1.08;;;;;;;;;;5060004;28;20024;-75
2023/08/07 09:38:29;;;;;;;3.17;0.93;;;;;;;;;;5061450;28;20055;-74
2023/08/07 09:40:57;;;;;;;0.80;0.80;;;;;;;;;;5059557;28;20484;-75
2023/08/07 09:43:22;;;;;;;1.00;0.90;;;;;;;;;;5059008;28;20111;-74
2023/08/07 09:45:50;;;;;;;1.10;1.00;;;;;;;;;;5063196;28;20099;-74
2023/08/07 09:48:22;;;;;;;1.10;0.90;;;;;;;;;;5080098;28;20032;-74
2023/08/07 09:50:47;;;;;;;0.88;0.85;;;;;;;;;;5080541;28;20450;-76
2023/08/07 09:53:12;;;;;;;1.02;0.98;;;;;;;;;;5094759;28;20040;-75
2023/08/07 09:55:38;;;;;;;1.25;0.88;;;;;;;;;;5073482;28;20035;-75
2023/08/07 09:58:05;;;;;;;3.00;1.00;;;;;;;;;;5061123;28;20568;-76
2023/08/07 10:00:33;;;;;;;1.02;0.93;;;;;;;;;;5060229;28;20215;-75
2023/08/07 10:02:59;;;;;;;1.45;1.05;;;;;;;;;;5062541;28;20077;-74
2023/08/07 10:05:24;;;;;;;1.15;0.70;;;;;;;;;;5060774;28;20041;-75
2023/08/07 10:07:50;;;;;;;1.58;0.80;;;;;;;;;;5057421;28;20098;-73
2023/08/07 10:10:16;;;;;;;3.28;0.93;;;;;;;;;;5061940;28;20028;-73
2023/08/07 10:12:45;;;;;;;1.17;0.80;;;;;;;;;;5062104;28;20443;-75
2023/08/07 10:15:11;;;;;;;1.42;1.30;;;;;;;;;;5060701;28;20050;-74
2023/08/07 10:17:36;;;;;;;2.75;1.00;;;;;;;;;;5061624;28;20355;-74
2023/08/07 10:20:03;;;;;;;1.15;1.00;;;;;;;;;;5061748;28;20115;-76
2023/08/07 10:22:30;;;;;;;0.93;0.93;;;;;;;;;;5059837;28;20039;-76
2023/08/07 10:24:57;;;;;;;1.25;1.00;;;;;;;;;;5060358;28;20020;-80
2023/08/07 10:27:23;;;;;;;1.05;1.05;;;;;;;;;;5061754;28;20447;-74
2023/08/07 10:29:50;;;;;;;0.93;0.93;;;;;;;;;;5060594;28;20032;-75
2023/08/07 10:32:19;;;;;;;2.83;0.90;;;;;;;;;;5074277;28;20661;-76
2023/08/07 10:34:49;;;;;;;1.75;1.02;;;;;;;;;;5059825;28;20093;-77
2023/08/07 10:37:34;;;;;;;1.10;1.00;;;;;;;;;;5064151;28;20416;-77
2023/08/07 10:40:03;;;;;;;0.82;0.82;;;;;;;;;;5070203;28;20040;-77
2023/08/07 10:42:32;;;;;;;1.70;0.90;;;;;;;;;;5073400;28;20071;-77
2023/08/07 10:44:58;;;;;;;;;;;;;;;;;;5071327;28;20139;-77
2023/08/07 10:47:33;;;;;;;1.13;0.80;;;;;;;;;;5069314;28;22993;-77
2023/08/07 10:49:58;;;;;;;2.17;1.13;;;;;;;;;;5057893;28;20032;-78
2023/08/07 10:52:25;;;;;;;1.15;1.00;;;;;;;;;;5057514;28;20118;-76
2023/08/07 10:54:50;;;;;;;0.70;0.70;;;;;;;;;;5062456;28;20031;-75
2023/08/07 10:57:17;;;;;;;0.80;0.80;;;;;;;;;;5055994;28;20047;-74
2023/08/07 11:00:01;;;;;;;2.60;0.90;;;;;;;;;;5062251;28;20039;-75
2023/08/07 11:02:28;;;;;;;1.20;1.10;;;;;;;;;;5066419;28;20032;-73
2023/08/07 11:04:55;;;;;;;1.17;0.85;;;;;;;;;;5060469;28;20093;-76
2023/08/07 11:07:24;;;;;;;1.92;1.05;;;;;;;;;;5059283;28;20063;-76
2023/08/07 11:09:50;;;;;;;1.60;1.23;;;;;;;;;;5057735;28;20027;-72
2023/08/07 11:12:15;;;;;;;1.02;1.00;;;;;;;;;;5056556;28;20016;-73
2023/08/07 11:14:41;;;;;;;2.45;0.95;;;;;;;;;;5062662;28;20026;-75
2023/08/07 11:17:06;;;;;;;0.90;0.90;;;;;;;;;;5060946;28;20038;-76
2023/08/07 11:19:31;;;;;;;1.40;1.30;;;;;;;;;;5060226;28;20028;-74
2023/08/07 11:21:58;;;;;;;1.00;1.00;;;;;;;;;;5065282;28;20035;-75
2023/08/07 11:24:26;;;;;;;1.20;1.10;;;;;;;;;;5066066;28;20455;-74
2023/08/07 11:26:52;;;;;;;2.08;1.20;;;;;;;;;;5070950;28;20024;-74
2023/08/07 11:29:18;;;;;;;1.02;1.02;;;;;;;;;;5062438;28;20071;-72
2023/08/07 11:31:44;;;;;;;1.60;0.90;;;;;;;;;;5073961;28;20031;-73
2023/08/07 11:34:10;;;;;;;1.20;1.17;;;;;;;;;;5078481;28;20043;-75
2023/08/07 11:36:40;;;;;;;1.15;0.98;;;;;;;;;;5075011;28;20071;-74
2023/08/07 11:39:06;;;;;;;1.20;0.95;;;;;;;;;;5079952;28;20055;-75
2023/08/07 11:41:31;;;;;;;1.90;1.20;;;;;;;;;;5077275;28;20178;-76
2023/08/07 11:43:57;;;;;;;1.13;0.90;;;;;;;;;;5081605;28;20447;-76
2023/08/07 11:46:22;;;;;;;3.10;0.98;;;;;;;;;;5077026;28;20082;-76
2023/08/07 11:48:47;;;;;;;1.60;1.27;;;;;;;;;;5079533;28;20036;-74
2023/08/07 11:51:13;;;;;;;2.08;1.15;;;;;;;;;;5063857;28;20036;-74
2023/08/07 11:53:39;;;;;;;1.30;1.20;;;;;;;;;;5063389;28;20374;-73
2023/08/07 11:56:06;;;;;;;1.98;1.30;;;;;;;;;;5063017;28;20055;-78
2023/08/07 11:58:36;;;;;;;1.67;1.00;;;;;;;;;;5064910;28;20031;-77
2023/08/07 12:01:05;;;;;;;1.50;1.10;;;;;;;;;;5065444;28;20027;-76
2023/08/07 12:03:38;;;;;;;0.85;0.85;;;;;;;;;;5062891;28;20051;-75
2023/08/07 12:06:04;;;;;;;1.23;0.80;;;;;;;;;;5059820;28;20081;-73
2023/08/07 12:08:33;;;;;;;1.83;1.00;;;;;;;;;;5079110;28;20114;-72
2023/08/07 12:10:59;;;;;;;;;;;;;;;;;;5073661;28;20035;-76
2023/08/07 12:13:25;;;;;;;3.20;1.20;;;;;;;;;;5063313;28;19920;-76
2023/08/07 12:15:54;;;;;;;1.45;0.82;;;;;;;;;;5073149;28;20109;-74
2023/08/07 12:18:23;;;;;;;5.47;1.00;;;;;;;;;;5074788;28;20043;-75
2023/08/07 12:20:52;;;;;;;2.45;1.10;;;;;;;;;;5078116;28;20451;-72
2023/08/07 12:23:17;;;;;;;0.98;0.95;;;;;;;;;;5069090;28;20032;-75
2023/08/07 12:25:43;;;;;;;1.38;1.20;;;;;;;;;;5063194;28;20029;-76
2023/08/07 12:28:08;;;;;;;4.10;0.98;;;;;;;;;;5080684;28;20427;-75
2023/08/07 12:30:34;;;;;;;2.25;1.15;;;;;;;;;;5083404;28;20024;-75
2023/08/07 12:33:00;;;;;;;1.58;0.90;;;;;;;;;;5069872;28;20131;-74
2023/08/07 12:35:25;;;;;;;1.30;1.10;;;;;;;;;;5059215;28;21119;-76
2023/08/07 12:37:52;;;;;;;1.88;1.10;;;;;;;;;;5067096;28;20395;-77
2023/08/07 12:40:20;;;;;;;1.42;1.20;;;;;;;;;;5072790;28;20087;-75
2023/08/07 12:42:46;;;;;;;1.85;1.20;;;;;;;;;;5063568;28;20061;-75
2023/08/07 12:45:11;;;;;;;1.40;1.30;;;;;;;;;;5067659;28;20033;-77
2023/08/07 12:47:36;;;;;;;2.17;1.25;;;;;;;;;;5080190;28;20030;-75
2023/08/07 12:50:03;;;;;;;2.38;1.30;;;;;;;;;;5078053;28;20055;-75
2023/08/07 12:52:28;;;;;;;3.65;1.38;;;;;;;;;;5075285;28;20738;-75
2023/08/07 12:54:54;;;;;;;1.55;1.35;;;;;;;;;;5074249;28;20023;-75
2023/08/07 12:57:19;;;;;;;1.20;1.10;;;;;;;;;;5082699;28;20038;-77
2023/08/07 12:59:44;;;;;;;1.85;1.38;;;;;;;;;;5074626;28;20295;-76
2023/08/07 13:02:10;;;;;;;1.33;1.20;;;;;;;;;;5068816;28;20040;-75
2023/08/07 13:04:35;;;;;;;1.40;1.23;;;;;;;;;;5070559;28;20027;-75
2023/08/07 13:07:00;;;;;;;3.50;1.38;;;;;;;;;;5069309;28;20023;-75
2023/08/07 13:09:26;;;;;;;2.03;1.20;;;;;;;;;;5065524;28;20039;-75
2023/08/07 13:11:51;;;;;;;1.65;1.55;;;;;;;;;;5062040;28;20043;-73
2023/08/07 13:14:17;;;;;;;1.40;1.25;;;;;;;;;;5066643;28;20057;-72
2023/08/07 13:16:42;;;;;;;2.47;1.30;;;;;;;;;;5064299;28;20051;-74
2023/08/07 13:19:07;;;;;;;1.30;1.20;;;;;;;;;;5073944;28;20097;-72
2023/08/07 13:21:33;;;;;;;1.92;1.40;;;;;;;;;;5063425;28;20450;-72
2023/08/07 13:23:58;;;;;;;2.35;1.50;;;;;;;;;;5073096;28;20431;-75
2023/08/07 13:26:24;;;;;;;1.52;1.42;;;;;;;;;;5067250;28;20023;-73
2023/08/07 13:28:49;;;;;;;1.48;1.38;;;;;;;;;;5074070;28;20032;-76
2023/08/07 13:31:14;;;;;;;2.88;1.60;;;;;;;;;;5060106;28;20070;-76
2023/08/07 13:33:40;;;;;;;2.65;1.65;;;;;;;;;;5075339;28;20131;-74
2023/08/07 13:36:05;;;;;;;1.48;1.38;;;;;;;;;;5067229;28;20306;-75
2023/08/07 13:38:30;;;;;;;1.70;1.60;;;;;;;;;;5062244;28;20100;-74
2023/08/07 13:40:56;;;;;;;1.88;1.67;;;;;;;;;;5062448;28;20020;-74
2023/08/07 13:43:21;;;;;;;2.28;1.98;;;;;;;;;;5061779;28;20031;-73
2023/08/07 13:45:46;;;;;;;2.38;2.13;;;;;;;;;;5063324;28;20081;-74
2023/08/07 13:48:12;;;;;;;1.95;1.73;;;;;;;;;;5060836;28;20058;-74
2023/08/07 13:50:38;;;;;;;2.30;2.10;;;;;;;;;;5062391;28;20012;-75
2023/08/07 13:53:03;;;;;;;2.60;1.88;;;;;;;;;;5070724;28;20028;-74
2023/08/07 13:55:28;;;;;;;2.00;1.90;;;;;;;;;;5077802;28;20301;-75
2023/08/07 13:57:54;;;;;;;2.38;2.17;;;;;;;;;;5077348;28;20024;-76
2023/08/07 14:00:19;;;;;;;2.08;1.92;;;;;;;;;;5078878;28;20047;-74
2023/08/07 14:02:45;;;;;;;2.35;1.80;;;;;;;;;;5076134;28;20046;-75
2023/08/07 14:05:10;;;;;;;2.13;1.95;;;;;;;;;;5077145;28;20298;-74
2023/08/07 14:07:35;;;;;;;1.80;1.70;;;;;;;;;;5075395;28;20043;-74
2023/08/07 14:10:01;;;;;;;1.50;1.40;;;;;;;;;;5078661;28;20032;-74
2023/08/07 14:12:27;;;;;;;3.00;1.77;;;;;;;;;;5077452;28;20039;-75
2023/08/07 14:14:52;;;;;;;1.70;1.60;;;;;;;;;;5080728;28;20024;-76
2023/08/07 14:17:18;;;;;;;2.30;2.10;;;;;;;;;;5075230;28;20077;-75
2023/08/07 14:19:43;;;;;;;2.13;1.83;;;;;;;;;;5078380;28;20036;-76
2023/08/07 14:22:08;;;;;;;2.47;2.00;;;;;;;;;;5080784;28;20465;-75
2023/08/07 14:24:34;;;;;;;1.98;1.75;;;;;;;;;;5077428;28;20029;-75
2023/08/07 14:26:59;;;;;;;1.80;1.70;;;;;;;;;;5077369;28;20139;-75
2023/08/07 14:29:25;;;;;;;1.95;1.65;;;;;;;;;;5079003;28;20487;-75
2023/08/07 14:31:50;;;;;;;1.75;1.65;;;;;;;;;;5076826;28;20024;-75
2023/08/07 14:34:15;;;;;;;1.70;1.60;;;;;;;;;;5080736;28;20036;-76